Time;durP1;ratioP1;P1;durP2;ratioP2;P2;SDS_P1;SDS_P2;PMS_P1;PMS_P2;Temp;Humidity;BMP_temperature;BMP_pressure;BME280_temperature;BME280_humidity;BME280_pressure;Samples;Min_cycle;Max_cycle;Signal;HPM_P1;HPM_P2
2021/12/16 00:06:58;;;;;;;34.10;20.20;;;;;;;;;;5135583;27;20559;-76
2021/12/16 00:09:35;;;;;;;36.23;21.40;;;;;;;;;;5155049;27;20467;-76
2021/12/16 00:29:01;;;;;;;34.00;22.63;;;;;;;;;;5115699;28;20423;-76
2021/12/16 00:31:24;;;;;;;35.80;21.10;;;;;;;;;;5153754;27;20438;-75
2021/12/16 00:34:01;;;;;;;34.00;22.00;;;;;;;;;;5151158;27;20505;-75
2021/12/16 00:36:30;;;;;;;30.57;19.87;;;;;;;;;;5132689;27;20468;-75
2021/12/16 00:38:57;;;;;;;35.57;20.60;;;;;;;;;;5133245;27;20479;-75
2021/12/16 00:41:24;;;;;;;34.73;21.67;;;;;;;;;;5132850;27;20453;-75
2021/12/16 00:43:57;;;;;;;36.20;21.73;;;;;;;;;;5141129;27;20471;-75
2021/12/16 00:49:21;;;;;;;34.23;20.37;;;;;;;;;;5130199;27;20445;-76
2021/12/16 00:54:30;;;;;;;31.17;20.40;;;;;;;;;;5123274;27;21057;-76
2021/12/16 00:57:02;;;;;;;31.10;20.87;;;;;;;;;;5136442;27;20481;-76
2021/12/16 00:59:34;;;;;;;35.70;22.30;;;;;;;;;;5140043;27;20449;-76
2021/12/16 01:02:15;;;;;;;33.77;19.27;;;;;;;;;;5134997;27;20498;-75
2021/12/16 01:05:05;;;;;;;33.40;21.60;;;;;;;;;;5133246;27;20548;-76
2021/12/16 01:07:52;;;;;;;31.10;20.07;;;;;;;;;;5131126;27;20470;-75
2021/12/16 01:34:49;;;;;;;34.83;20.40;;;;;;;;;;5152088;27;20429;-76
2021/12/16 01:37:49;;;;;;;42.40;22.30;;;;;;;;;;5125621;27;20537;-76
2021/12/16 01:40:24;;;;;;;35.87;22.00;;;;;;;;;;5120350;27;20446;-75
2021/12/16 01:45:49;;;;;;;32.70;19.77;;;;;;;;;;5124507;27;20464;-76
2021/12/16 01:51:20;;;;;;;36.60;21.97;;;;;;;;;;5117512;27;20513;-75
2021/12/16 01:54:17;;;;;;;37.17;21.57;;;;;;;;;;5131589;27;20445;-75
2021/12/16 01:56:48;;;;;;;33.80;21.40;;;;;;;;;;5117930;27;20858;-75
2021/12/16 01:59:20;;;;;;;33.60;21.70;;;;;;;;;;5122924;27;20796;-76
2021/12/16 02:01:47;;;;;;;34.90;21.03;;;;;;;;;;5113045;28;20476;-75
2021/12/16 02:04:21;;;;;;;34.87;20.00;;;;;;;;;;5114389;28;20540;-76
2021/12/16 02:07:04;;;;;;;34.20;21.10;;;;;;;;;;5122049;27;20485;-76
2021/12/16 02:09:35;;;;;;;31.67;21.10;;;;;;;;;;5140475;27;20440;-75
2021/12/16 02:12:12;;;;;;;35.07;21.20;;;;;;;;;;5133068;27;20437;-76
2021/12/16 02:28:18;;;;;;;35.37;21.37;;;;;;;;;;5134075;27;20887;-76
2021/12/16 02:33:53;;;;;;;37.37;21.60;;;;;;;;;;5139053;27;20433;-75
2021/12/16 02:36:26;;;;;;;35.10;21.73;;;;;;;;;;5145220;27;20548;-75
2021/12/16 02:38:57;;;;;;;36.53;23.23;;;;;;;;;;5131035;27;20461;-75
2021/12/16 02:41:25;;;;;;;32.63;20.80;;;;;;;;;;5121290;27;20461;-75
2021/12/16 02:44:10;;;;;;;32.27;21.20;;;;;;;;;;5114480;27;20458;-75
2021/12/16 02:49:19;;;;;;;37.47;22.30;;;;;;;;;;5131511;27;20677;-76
2021/12/16 02:51:47;;;;;;;37.27;21.37;;;;;;;;;;5134030;27;20455;-76
2021/12/16 02:54:17;;;;;;;40.93;23.90;;;;;;;;;;5139628;27;20433;-76
2021/12/16 02:56:44;;;;;;;34.97;21.73;;;;;;;;;;5147026;27;20993;-76
2021/12/16 02:59:14;;;;;;;38.77;22.83;;;;;;;;;;5151967;27;20436;-76
2021/12/16 03:01:44;;;;;;;38.03;22.07;;;;;;;;;;5145325;27;20460;-75
2021/12/16 03:04:13;;;;;;;34.50;22.13;;;;;;;;;;5131364;27;20440;-76
2021/12/16 03:06:41;;;;;;;37.57;22.17;;;;;;;;;;5119190;27;20498;-76
2021/12/16 03:09:10;;;;;;;40.30;22.87;;;;;;;;;;5134298;27;20491;-75
2021/12/16 03:11:47;;;;;;;36.67;21.13;;;;;;;;;;5135183;27;21040;-76
2021/12/16 03:17:09;;;;;;;39.47;23.93;;;;;;;;;;5130254;27;20450;-75
2021/12/16 03:19:50;;;;;;;41.00;23.57;;;;;;;;;;5131590;27;20471;-76
2021/12/16 03:22:36;;;;;;;42.67;24.03;;;;;;;;;;5130359;27;20930;-75
2021/12/16 03:25:14;;;;;;;42.77;24.23;;;;;;;;;;5133609;27;20457;-76
2021/12/16 03:28:15;;;;;;;38.43;22.60;;;;;;;;;;5131666;27;20473;-75
2021/12/16 03:30:57;;;;;;;39.13;22.67;;;;;;;;;;5130168;27;20790;-75
2021/12/16 03:33:46;;;;;;;36.37;22.80;;;;;;;;;;5137976;27;20806;-75
2021/12/16 03:36:26;;;;;;;38.33;22.80;;;;;;;;;;5148665;27;20472;-75
2021/12/16 03:38:56;;;;;;;39.53;24.00;;;;;;;;;;5149460;27;20524;-76
2021/12/16 03:41:23;;;;;;;44.53;24.77;;;;;;;;;;5113260;27;20460;-75
2021/12/16 03:43:52;;;;;;;44.80;23.23;;;;;;;;;;5130199;27;20452;-76
2021/12/16 03:46:28;;;;;;;42.70;25.07;;;;;;;;;;5121542;27;20477;-75
2021/12/16 03:48:59;;;;;;;40.33;24.23;;;;;;;;;;5133586;27;20440;-75
2021/12/16 03:51:27;;;;;;;42.87;24.70;;;;;;;;;;5125759;27;20438;-75
2021/12/16 03:53:56;;;;;;;43.97;24.80;;;;;;;;;;5134840;27;20426;-75
2021/12/16 03:56:24;;;;;;;42.80;23.53;;;;;;;;;;5137247;27;20660;-75
2021/12/16 03:58:53;;;;;;;39.90;24.00;;;;;;;;;;5130763;27;20958;-76
2021/12/16 04:01:24;;;;;;;39.87;22.93;;;;;;;;;;5124912;27;20450;-76
2021/12/16 04:03:51;;;;;;;40.00;24.20;;;;;;;;;;5119908;27;20454;-76
2021/12/16 04:06:19;;;;;;;37.57;24.30;;;;;;;;;;5133239;27;20543;-76
2021/12/16 04:08:46;;;;;;;45.53;27.00;;;;;;;;;;5135646;27;20493;-76
2021/12/16 04:11:19;;;;;;;44.17;22.90;;;;;;;;;;5135783;27;20444;-76
2021/12/16 04:13:54;;;;;;;38.67;23.73;;;;;;;;;;5137427;27;20445;-76
2021/12/16 04:16:24;;;;;;;37.17;24.27;;;;;;;;;;5130356;27;20548;-75
2021/12/16 04:18:51;;;;;;;38.30;23.60;;;;;;;;;;5128584;27;20634;-75
2021/12/16 04:21:19;;;;;;;40.60;23.73;;;;;;;;;;5130817;27;20438;-74
2021/12/16 04:23:47;;;;;;;44.70;25.80;;;;;;;;;;5128500;27;20461;-75
2021/12/16 04:26:14;;;;;;;46.17;27.30;;;;;;;;;;5138257;27;20461;-75
2021/12/16 04:28:42;;;;;;;44.37;26.30;;;;;;;;;;5145303;27;20476;-74
2021/12/16 04:31:10;;;;;;;41.27;24.27;;;;;;;;;;5130409;27;20548;-76
2021/12/16 04:33:39;;;;;;;46.83;25.30;;;;;;;;;;5130744;27;20811;-77
2021/12/16 04:36:08;;;;;;;43.13;24.60;;;;;;;;;;5129549;28;20511;-76
2021/12/16 04:38:35;;;;;;;42.60;24.60;;;;;;;;;;5121533;27;20484;-76
2021/12/16 04:41:02;;;;;;;44.10;23.23;;;;;;;;;;5126505;27;20482;-77
2021/12/16 04:43:38;;;;;;;48.80;26.50;;;;;;;;;;5137198;27;20437;-76
2021/12/16 04:46:06;;;;;;;44.03;23.90;;;;;;;;;;5127842;27;20522;-76
2021/12/16 04:48:33;;;;;;;49.97;24.90;;;;;;;;;;5127621;27;20477;-75
2021/12/16 04:51:02;;;;;;;45.90;25.03;;;;;;;;;;5129740;27;20824;-75
2021/12/16 04:53:29;;;;;;;42.63;25.13;;;;;;;;;;5131881;27;20465;-76
2021/12/16 04:55:57;;;;;;;43.63;26.47;;;;;;;;;;5129897;27;20488;-77
2021/12/16 04:58:24;;;;;;;44.00;25.87;;;;;;;;;;5141202;27;20426;-76
2021/12/16 05:00:52;;;;;;;44.13;25.97;;;;;;;;;;5152024;27;20443;-75
2021/12/16 05:03:19;;;;;;;51.53;26.43;;;;;;;;;;5154880;27;20520;-76
2021/12/16 05:05:46;;;;;;;48.20;26.47;;;;;;;;;;5124333;27;20477;-75
2021/12/16 05:08:15;;;;;;;50.60;27.83;;;;;;;;;;5133077;27;20663;-75
2021/12/16 05:10:42;;;;;;;45.00;25.73;;;;;;;;;;5122930;27;20458;-74
2021/12/16 05:13:09;;;;;;;50.40;27.10;;;;;;;;;;5141189;27;20528;-75
2021/12/16 05:15:40;;;;;;;43.20;25.40;;;;;;;;;;5138801;27;20457;-75
2021/12/16 05:18:08;;;;;;;43.47;24.30;;;;;;;;;;5129099;27;20529;-76
2021/12/16 05:20:38;;;;;;;45.47;26.30;;;;;;;;;;5130654;27;20556;-74
2021/12/16 05:26:01;;;;;;;45.60;23.50;;;;;;;;;;5130297;27;20829;-76
2021/12/16 05:28:29;;;;;;;45.37;26.40;;;;;;;;;;5112900;27;20480;-76
2021/12/16 05:30:56;;;;;;;47.20;26.97;;;;;;;;;;5135745;27;20441;-76
2021/12/16 05:33:25;;;;;;;41.77;24.60;;;;;;;;;;5136515;27;20504;-76
2021/12/16 05:35:52;;;;;;;46.47;26.27;;;;;;;;;;5137478;27;20495;-76
2021/12/16 05:38:20;;;;;;;50.20;26.43;;;;;;;;;;5143029;27;20525;-76
2021/12/16 05:40:48;;;;;;;50.20;27.40;;;;;;;;;;5154263;27;20440;-76
2021/12/16 05:43:17;;;;;;;45.87;24.63;;;;;;;;;;5153323;27;20452;-74
2021/12/16 05:45:44;;;;;;;48.70;25.27;;;;;;;;;;5143819;27;20477;-75
2021/12/16 05:48:13;;;;;;;43.57;24.57;;;;;;;;;;5130380;27;20983;-75
2021/12/16 05:50:43;;;;;;;42.63;24.80;;;;;;;;;;5120960;27;20463;-76
2021/12/16 05:53:11;;;;;;;45.07;24.47;;;;;;;;;;5141226;27;20425;-76
2021/12/16 05:55:38;;;;;;;53.43;26.70;;;;;;;;;;5147854;27;20461;-75
2021/12/16 05:58:08;;;;;;;42.73;25.83;;;;;;;;;;5153124;27;20440;-76
2021/12/16 06:00:37;;;;;;;37.67;22.80;;;;;;;;;;5152486;27;20964;-75
2021/12/16 06:03:04;;;;;;;44.70;25.23;;;;;;;;;;5117273;27;20458;-75
2021/12/16 06:05:31;;;;;;;48.80;26.20;;;;;;;;;;5112726;27;20486;-76
2021/12/16 06:07:59;;;;;;;41.30;24.30;;;;;;;;;;5114258;28;20474;-75
2021/12/16 06:13:12;;;;;;;44.73;25.10;;;;;;;;;;5125049;27;20432;-75
2021/12/16 06:15:56;;;;;;;48.80;25.53;;;;;;;;;;5134524;27;20477;-75
2021/12/16 06:26:32;;;;;;;44.20;25.60;;;;;;;;;;5131786;27;20531;-75
2021/12/16 06:29:00;;;;;;;48.07;26.30;;;;;;;;;;5115588;27;20843;-76
2021/12/16 06:31:27;;;;;;;47.40;27.03;;;;;;;;;;5134783;27;20441;-75
2021/12/16 06:33:54;;;;;;;48.57;27.40;;;;;;;;;;5133000;27;20462;-75
2021/12/16 06:36:22;;;;;;;52.13;30.13;;;;;;;;;;5138549;27;20457;-75
2021/12/16 06:38:49;;;;;;;49.70;29.17;;;;;;;;;;5136878;27;20918;-75
2021/12/16 06:41:17;;;;;;;48.37;25.63;;;;;;;;;;5130436;27;20441;-75
2021/12/16 06:43:46;;;;;;;48.63;27.60;;;;;;;;;;5131597;27;20456;-76
2021/12/16 06:48:43;;;;;;;55.00;27.83;;;;;;;;;;5122010;27;20476;-75
2021/12/16 06:51:17;;;;;;;53.60;30.40;;;;;;;;;;5123616;27;20258;-73
2021/12/16 06:53:50;;;;;;;51.93;28.43;;;;;;;;;;5138831;27;20892;-75
2021/12/16 06:56:23;;;;;;;48.67;29.13;;;;;;;;;;5131040;27;20469;-75
2021/12/16 06:59:03;;;;;;;46.67;27.00;;;;;;;;;;5129896;27;20508;-75
2021/12/16 07:01:38;;;;;;;46.63;28.40;;;;;;;;;;5131712;27;20529;-74
2021/12/16 07:04:07;;;;;;;50.57;29.10;;;;;;;;;;5128178;27;20445;-76
2021/12/16 07:06:35;;;;;;;52.70;28.90;;;;;;;;;;5121108;27;20466;-75
2021/12/16 07:09:09;;;;;;;58.53;31.57;;;;;;;;;;5136283;27;20480;-75
2021/12/16 07:11:41;;;;;;;56.33;31.47;;;;;;;;;;5141369;27;20440;-75
2021/12/16 07:14:12;;;;;;;53.90;27.40;;;;;;;;;;5150582;27;20821;-75
2021/12/16 07:16:40;;;;;;;51.23;27.07;;;;;;;;;;5120069;27;20482;-75
2021/12/16 07:19:09;;;;;;;52.07;28.67;;;;;;;;;;5112735;27;20451;-75
2021/12/16 07:21:38;;;;;;;49.37;28.27;;;;;;;;;;5125593;27;20462;-76
2021/12/16 07:24:06;;;;;;;58.90;30.87;;;;;;;;;;5133364;27;20442;-76
2021/12/16 07:26:33;;;;;;;55.83;31.37;;;;;;;;;;5136828;27;20470;-76
2021/12/16 07:29:00;;;;;;;52.47;28.90;;;;;;;;;;5144801;27;21000;-75
2021/12/16 07:31:28;;;;;;;56.53;29.23;;;;;;;;;;5131272;27;20442;-76
2021/12/16 07:33:55;;;;;;;54.23;29.03;;;;;;;;;;5126044;27;20456;-75
2021/12/16 07:36:24;;;;;;;59.43;32.10;;;;;;;;;;5131222;27;20454;-75
2021/12/16 07:38:52;;;;;;;48.30;28.60;;;;;;;;;;5121781;27;20485;-75
2021/12/16 07:41:21;;;;;;;53.07;30.03;;;;;;;;;;5138070;27;20429;-75
2021/12/16 07:43:58;;;;;;;52.40;29.80;;;;;;;;;;5143365;27;20777;-75
2021/12/16 07:46:26;;;;;;;52.90;30.47;;;;;;;;;;5152198;27;20464;-75
2021/12/16 07:48:53;;;;;;;61.83;28.87;;;;;;;;;;5145815;27;20878;-75
2021/12/16 07:51:20;;;;;;;52.40;28.43;;;;;;;;;;5110708;28;20458;-76
2021/12/16 07:53:48;;;;;;;52.60;29.70;;;;;;;;;;5117708;27;20450;-75
2021/12/16 07:56:16;;;;;;;53.43;30.97;;;;;;;;;;5139167;27;20526;-75
2021/12/16 07:58:43;;;;;;;56.13;32.30;;;;;;;;;;5143946;27;20535;-75
2021/12/16 08:01:10;;;;;;;54.13;31.17;;;;;;;;;;5150699;27;20445;-74
2021/12/16 08:03:38;;;;;;;52.10;28.47;;;;;;;;;;5151694;27;20448;-73
2021/12/16 08:06:08;;;;;;;48.00;27.30;;;;;;;;;;5137994;27;21157;-75
2021/12/16 08:08:35;;;;;;;53.30;30.73;;;;;;;;;;5110614;28;20535;-75
2021/12/16 08:11:05;;;;;;;50.90;28.17;;;;;;;;;;5110653;28;20452;-75
2021/12/16 08:13:32;;;;;;;49.40;28.77;;;;;;;;;;5125349;27;20464;-75
2021/12/16 08:16:01;;;;;;;45.73;28.37;;;;;;;;;;5127693;27;20509;-75
2021/12/16 08:18:28;;;;;;;46.97;26.70;;;;;;;;;;5130475;27;20804;-76
2021/12/16 08:20:56;;;;;;;44.23;24.83;;;;;;;;;;5134371;27;20892;-75
2021/12/16 08:23:23;;;;;;;48.60;26.83;;;;;;;;;;5117976;27;20458;-74
2021/12/16 08:25:50;;;;;;;43.13;24.53;;;;;;;;;;5111382;28;20458;-75
2021/12/16 08:28:19;;;;;;;46.77;25.63;;;;;;;;;;5130290;27;20825;-75
2021/12/16 08:30:48;;;;;;;45.27;24.80;;;;;;;;;;5126362;27;20489;-75
2021/12/16 08:33:15;;;;;;;45.67;26.10;;;;;;;;;;5134740;27;20449;-75
2021/12/16 08:35:45;;;;;;;39.80;25.00;;;;;;;;;;5134023;27;20849;-75
2021/12/16 08:38:13;;;;;;;45.30;25.03;;;;;;;;;;5136291;27;20856;-74
2021/12/16 08:40:41;;;;;;;48.70;26.90;;;;;;;;;;5141746;27;20432;-75
2021/12/16 08:43:09;;;;;;;41.63;24.57;;;;;;;;;;5137560;27;20465;-75
2021/12/16 08:45:38;;;;;;;48.83;26.47;;;;;;;;;;5133484;27;20488;-75
2021/12/16 08:48:07;;;;;;;42.37;23.97;;;;;;;;;;5125041;27;20466;-75
2021/12/16 08:50:36;;;;;;;46.73;25.27;;;;;;;;;;5119881;27;20958;-75
2021/12/16 08:53:03;;;;;;;45.00;26.23;;;;;;;;;;5119965;27;20472;-74
2021/12/16 08:55:32;;;;;;;40.53;25.40;;;;;;;;;;5141548;27;20459;-74
2021/12/16 08:57:59;;;;;;;41.47;25.33;;;;;;;;;;5148929;27;20444;-75
2021/12/16 09:00:30;;;;;;;40.03;25.83;;;;;;;;;;5154097;27;20817;-75
2021/12/16 09:02:58;;;;;;;43.10;26.23;;;;;;;;;;5128883;27;20448;-74
2021/12/16 09:05:28;;;;;;;39.53;25.47;;;;;;;;;;5134026;27;20476;-75
2021/12/16 09:07:56;;;;;;;43.60;26.07;;;;;;;;;;5132603;27;20518;-74
2021/12/16 09:10:27;;;;;;;42.47;26.93;;;;;;;;;;5121158;27;20910;-75
2021/12/16 09:13:02;;;;;;;44.50;26.30;;;;;;;;;;5115077;28;20987;-75
2021/12/16 09:15:31;;;;;;;38.67;25.00;;;;;;;;;;5136728;27;20487;-75
2021/12/16 09:18:00;;;;;;;44.83;26.30;;;;;;;;;;5140128;27;20452;-75
2021/12/16 09:20:27;;;;;;;44.80;26.67;;;;;;;;;;5135089;27;20453;-75
2021/12/16 09:22:54;;;;;;;40.07;25.80;;;;;;;;;;5134130;27;20437;-74
2021/12/16 09:25:21;;;;;;;40.27;23.90;;;;;;;;;;5131841;27;20472;-73
2021/12/16 09:27:49;;;;;;;43.90;23.40;;;;;;;;;;5126510;27;20472;-76
2021/12/16 09:30:18;;;;;;;41.97;25.53;;;;;;;;;;5114004;28;20490;-74
2021/12/16 09:32:46;;;;;;;37.43;24.03;;;;;;;;;;5115308;28;20443;-74
2021/12/16 09:35:14;;;;;;;44.47;25.80;;;;;;;;;;5122118;27;20486;-75
2021/12/16 09:37:41;;;;;;;40.03;25.00;;;;;;;;;;5115842;27;20442;-75
2021/12/16 09:40:11;;;;;;;41.87;25.03;;;;;;;;;;5140446;27;20432;-75
2021/12/16 09:42:39;;;;;;;41.77;25.03;;;;;;;;;;5138851;27;20446;-75
2021/12/16 09:45:08;;;;;;;45.13;26.83;;;;;;;;;;5131736;27;20870;-75
2021/12/16 09:47:36;;;;;;;46.00;26.43;;;;;;;;;;5126820;27;20458;-74
2021/12/16 09:50:04;;;;;;;40.73;26.23;;;;;;;;;;5117568;27;20831;-75
2021/12/16 09:52:32;;;;;;;42.70;25.30;;;;;;;;;;5133357;27;20973;-75
2021/12/16 09:55:00;;;;;;;40.67;26.57;;;;;;;;;;5138525;27;20469;-75
2021/12/16 09:57:28;;;;;;;45.90;25.70;;;;;;;;;;5134910;27;20449;-75
2021/12/16 09:59:56;;;;;;;42.27;25.63;;;;;;;;;;5132403;27;21014;-74
2021/12/16 10:02:23;;;;;;;45.60;27.23;;;;;;;;;;5132286;27;20533;-74
2021/12/16 10:04:51;;;;;;;44.60;25.37;;;;;;;;;;5131384;27;20445;-74
2021/12/16 10:07:20;;;;;;;41.83;26.47;;;;;;;;;;5121272;27;20460;-74
2021/12/16 10:09:50;;;;;;;39.70;25.50;;;;;;;;;;5140654;27;20473;-74
2021/12/16 10:12:21;;;;;;;49.37;27.13;;;;;;;;;;5135829;27;20557;-74
2021/12/16 10:17:34;;;;;;;39.43;25.60;;;;;;;;;;5115249;27;20454;-74
2021/12/16 10:20:04;;;;;;;42.73;26.30;;;;;;;;;;5131144;27;20436;-75
2021/12/16 10:22:35;;;;;;;44.30;26.13;;;;;;;;;;5128479;27;20473;-75
2021/12/16 10:25:17;;;;;;;40.43;22.63;;;;;;;;;;5139944;27;20460;-74
2021/12/16 10:27:56;;;;;;;44.87;26.40;;;;;;;;;;5107537;27;21075;-76
2021/12/16 10:30:23;;;;;;;41.27;25.60;;;;;;;;;;5112191;27;20537;-74
2021/12/16 10:32:50;;;;;;;38.47;25.90;;;;;;;;;;5111509;28;20434;-75
2021/12/16 10:35:27;;;;;;;41.30;25.80;;;;;;;;;;5120831;27;20880;-75
2021/12/16 10:37:57;;;;;;;40.50;25.80;;;;;;;;;;5133897;27;20475;-74
2021/12/16 10:40:28;;;;;;;41.80;24.90;;;;;;;;;;5148180;27;20949;-74
2021/12/16 10:42:57;;;;;;;40.10;23.83;;;;;;;;;;5143116;27;20778;-75
2021/12/16 10:45:26;;;;;;;44.93;25.70;;;;;;;;;;5129827;27;20553;-74
2021/12/16 10:48:08;;;;;;;42.90;24.13;;;;;;;;;;5118301;27;20481;-75
2021/12/16 10:50:49;;;;;;;46.20;26.70;;;;;;;;;;5125375;27;20503;-74
2021/12/16 10:53:16;;;;;;;45.00;25.57;;;;;;;;;;5139693;27;20445;-74
2021/12/16 10:55:56;;;;;;;51.53;29.30;;;;;;;;;;5144172;27;20547;-73
2021/12/16 10:58:47;;;;;;;42.00;27.83;;;;;;;;;;5129106;27;20444;-74
2021/12/16 11:01:30;;;;;;;49.13;27.27;;;;;;;;;;5129279;27;20900;-73
2021/12/16 11:03:57;;;;;;;40.70;25.50;;;;;;;;;;5126481;27;20440;-75
2021/12/16 11:06:28;;;;;;;49.50;29.03;;;;;;;;;;5128624;27;20457;-72
2021/12/16 11:08:55;;;;;;;41.33;25.13;;;;;;;;;;5134983;27;20481;-74
2021/12/16 11:11:27;;;;;;;40.40;25.83;;;;;;;;;;5132167;27;20449;-74
2021/12/16 11:14:04;;;;;;;39.50;25.67;;;;;;;;;;5127825;27;20465;-75
2021/12/16 11:16:32;;;;;;;39.03;25.57;;;;;;;;;;5131943;27;20453;-74
2021/12/16 11:19:00;;;;;;;45.53;25.37;;;;;;;;;;5129292;27;20480;-73
2021/12/16 11:21:39;;;;;;;42.40;26.23;;;;;;;;;;5112559;27;20462;-73
2021/12/16 11:24:22;;;;;;;41.23;25.40;;;;;;;;;;5113248;28;20443;-73
2021/12/16 11:26:49;;;;;;;34.43;23.90;;;;;;;;;;5114095;28;20513;-73
2021/12/16 11:29:18;;;;;;;43.90;28.20;;;;;;;;;;5131989;27;20544;-72
2021/12/16 11:31:47;;;;;;;38.00;25.17;;;;;;;;;;5138500;27;20524;-72
2021/12/16 11:34:15;;;;;;;42.80;26.60;;;;;;;;;;5131178;27;20462;-73
2021/12/16 11:36:43;;;;;;;42.00;27.60;;;;;;;;;;5130316;27;20469;-75
2021/12/16 11:39:12;;;;;;;42.17;26.13;;;;;;;;;;5131057;27;20882;-75
2021/12/16 11:41:40;;;;;;;44.33;26.17;;;;;;;;;;5130781;27;20993;-74
2021/12/16 11:44:10;;;;;;;43.47;26.37;;;;;;;;;;5110161;28;20458;-74
2021/12/16 11:46:42;;;;;;;44.97;27.50;;;;;;;;;;5129863;27;20457;-74
2021/12/16 11:49:11;;;;;;;41.57;25.07;;;;;;;;;;5126774;27;20477;-74
2021/12/16 11:51:40;;;;;;;43.33;26.57;;;;;;;;;;5134606;27;20893;-74
2021/12/16 11:54:13;;;;;;;42.87;27.07;;;;;;;;;;5137007;27;20814;-74
2021/12/16 11:56:43;;;;;;;45.13;25.70;;;;;;;;;;5131064;27;20449;-74
2021/12/16 11:59:11;;;;;;;44.83;27.40;;;;;;;;;;5130262;27;20442;-74
2021/12/16 12:01:41;;;;;;;39.67;25.67;;;;;;;;;;5130860;27;20437;-73
2021/12/16 12:04:09;;;;;;;41.90;27.20;;;;;;;;;;5114763;28;20805;-74
2021/12/16 12:06:37;;;;;;;40.50;25.33;;;;;;;;;;5123847;27;20827;-74
2021/12/16 12:09:06;;;;;;;40.13;25.53;;;;;;;;;;5140991;27;20457;-74
2021/12/16 12:11:34;;;;;;;42.97;26.27;;;;;;;;;;5136742;27;20469;-74
2021/12/16 12:14:03;;;;;;;44.13;27.33;;;;;;;;;;5134823;27;20445;-74
2021/12/16 12:16:33;;;;;;;49.07;30.40;;;;;;;;;;5127683;27;20475;-74
2021/12/16 12:19:03;;;;;;;43.23;27.07;;;;;;;;;;5119016;27;20492;-74
2021/12/16 12:21:33;;;;;;;48.27;28.10;;;;;;;;;;5118173;27;20458;-73
2021/12/16 12:24:02;;;;;;;45.60;26.67;;;;;;;;;;5134049;27;20451;-74
2021/12/16 12:26:30;;;;;;;44.73;27.60;;;;;;;;;;5137948;27;20992;-74
2021/12/16 12:28:59;;;;;;;40.50;25.83;;;;;;;;;;5151058;27;20457;-74
2021/12/16 12:31:27;;;;;;;45.63;27.33;;;;;;;;;;5138206;27;20535;-74
2021/12/16 12:33:54;;;;;;;51.07;28.37;;;;;;;;;;5116429;27;20434;-74
2021/12/16 12:36:24;;;;;;;49.47;29.90;;;;;;;;;;5122377;27;20988;-73
2021/12/16 12:38:52;;;;;;;43.50;28.17;;;;;;;;;;5119840;27;21023;-76
2021/12/16 12:41:19;;;;;;;49.40;28.70;;;;;;;;;;5136273;27;20449;-74
2021/12/16 12:43:47;;;;;;;47.77;26.83;;;;;;;;;;5126531;27;21907;-75
2021/12/16 12:46:15;;;;;;;40.30;25.70;;;;;;;;;;5123270;27;20751;-75
2021/12/16 12:48:43;;;;;;;39.27;25.13;;;;;;;;;;5130229;27;20457;-75
2021/12/16 12:51:11;;;;;;;40.53;26.00;;;;;;;;;;5114192;27;20982;-74
2021/12/16 12:53:47;;;;;;;36.20;24.93;;;;;;;;;;5130725;27;20464;-75
2021/12/16 12:56:15;;;;;;;48.57;27.90;;;;;;;;;;5138606;27;20454;-74
2021/12/16 12:58:58;;;;;;;41.63;26.43;;;;;;;;;;5135321;27;20480;-75
2021/12/16 13:01:34;;;;;;;47.47;28.93;;;;;;;;;;5129367;27;20433;-75
2021/12/16 13:04:03;;;;;;;47.07;29.40;;;;;;;;;;5128854;27;21212;-75
2021/12/16 13:06:30;;;;;;;45.03;27.13;;;;;;;;;;5128530;27;20502;-74
2021/12/16 13:09:03;;;;;;;42.07;28.20;;;;;;;;;;5120916;27;20501;-74
2021/12/16 13:11:31;;;;;;;43.30;28.50;;;;;;;;;;5133995;27;20481;-74
2021/12/16 13:14:06;;;;;;;48.70;27.53;;;;;;;;;;5138780;27;20467;-75
2021/12/16 13:17:03;;;;;;;40.07;24.53;;;;;;;;;;5132741;27;20474;-75
2021/12/16 13:25:25;;;;;;;50.50;28.57;;;;;;;;;;5122787;27;20618;-74
2021/12/16 13:27:50;;;;;;;48.37;26.87;;;;;;;;;;5132666;27;20529;-77
2021/12/16 13:30:38;;;;;;;46.37;26.40;;;;;;;;;;5134854;27;20552;-73
2021/12/16 13:33:15;;;;;;;47.00;29.27;;;;;;;;;;5138244;27;20441;-75
2021/12/16 13:35:48;;;;;;;44.23;24.67;;;;;;;;;;5139982;27;20529;-74
2021/12/16 13:38:16;;;;;;;43.57;27.30;;;;;;;;;;5112783;28;20513;-75
2021/12/16 13:40:46;;;;;;;46.80;27.30;;;;;;;;;;5112647;28;20439;-75
2021/12/16 13:43:22;;;;;;;44.80;28.07;;;;;;;;;;5111852;27;20438;-74
2021/12/16 13:45:56;;;;;;;47.30;27.73;;;;;;;;;;5112466;28;20476;-74
2021/12/16 13:48:39;;;;;;;49.53;30.10;;;;;;;;;;5118140;27;20458;-74
2021/12/16 14:00:13;;;;;;;48.90;28.70;;;;;;;;;;5135863;27;20446;-75
2021/12/16 14:02:51;;;;;;;42.13;26.80;;;;;;;;;;5132306;27;20495;-75
2021/12/16 14:05:23;;;;;;;49.50;29.70;;;;;;;;;;5115112;27;20511;-74
2021/12/16 14:07:55;;;;;;;48.57;29.10;;;;;;;;;;5133543;27;20445;-74
2021/12/16 14:10:29;;;;;;;63.63;35.20;;;;;;;;;;5117883;27;20997;-74
2021/12/16 14:16:01;;;;;;;56.13;33.17;;;;;;;;;;5137343;27;20453;-75
2021/12/16 14:24:08;;;;;;;47.83;29.70;;;;;;;;;;5130558;27;20456;-75
2021/12/16 14:26:42;;;;;;;47.83;28.93;;;;;;;;;;5128743;27;20821;-75
2021/12/16 14:32:37;;;;;;;47.80;29.90;;;;;;;;;;5137769;27;20593;-76
2021/12/16 14:34:57;;;;;;;48.77;30.10;;;;;;;;;;5143076;27;20851;-74
2021/12/16 14:37:32;;;;;;;57.43;33.10;;;;;;;;;;5129415;27;20527;-74
2021/12/16 14:40:10;;;;;;;51.33;32.03;;;;;;;;;;5118166;27;20469;-74
2021/12/16 14:42:45;;;;;;;59.77;33.30;;;;;;;;;;5125675;27;20468;-74
2021/12/16 14:45:24;;;;;;;54.63;31.70;;;;;;;;;;5137151;27;20457;-74
2021/12/16 14:48:04;;;;;;;52.00;28.33;;;;;;;;;;5136287;27;20525;-75
2021/12/16 14:50:33;;;;;;;53.90;31.00;;;;;;;;;;5114668;27;20477;-74
2021/12/16 14:53:00;;;;;;;51.43;33.40;;;;;;;;;;5127138;27;20457;-75
2021/12/16 14:55:29;;;;;;;49.47;30.00;;;;;;;;;;5128864;27;20457;-74
2021/12/16 14:57:59;;;;;;;48.10;29.50;;;;;;;;;;5126526;27;20434;-75
2021/12/16 15:00:30;;;;;;;50.07;30.60;;;;;;;;;;5121105;27;20438;-75
2021/12/16 15:03:05;;;;;;;52.03;29.87;;;;;;;;;;5137703;27;20459;-74
2021/12/16 15:05:33;;;;;;;52.00;33.03;;;;;;;;;;5133067;27;20475;-75
2021/12/16 15:08:05;;;;;;;50.83;31.07;;;;;;;;;;5121854;27;20458;-75
2021/12/16 15:10:33;;;;;;;46.93;27.93;;;;;;;;;;5114548;27;20474;-74
2021/12/16 15:13:06;;;;;;;47.10;28.67;;;;;;;;;;5121283;27;20451;-75
2021/12/16 15:15:40;;;;;;;61.70;33.33;;;;;;;;;;5113078;27;20478;-74
2021/12/16 15:37:15;;;;;;;54.70;29.27;;;;;;;;;;5111577;28;20522;-75
2021/12/16 15:39:52;;;;;;;52.53;30.07;;;;;;;;;;5127326;27;20487;-75
2021/12/16 15:45:06;;;;;;;52.37;31.90;;;;;;;;;;5131560;27;20515;-74
2021/12/16 15:47:38;;;;;;;49.50;30.93;;;;;;;;;;5122157;27;20435;-74
2021/12/16 15:50:09;;;;;;;58.47;33.27;;;;;;;;;;5113454;27;20457;-74
2021/12/16 15:52:40;;;;;;;53.13;31.83;;;;;;;;;;5110868;28;20439;-74
2021/12/16 15:55:07;;;;;;;47.67;28.90;;;;;;;;;;5110785;28;20479;-75
2021/12/16 15:57:35;;;;;;;53.20;30.13;;;;;;;;;;5110822;28;20939;-74
2021/12/16 16:00:08;;;;;;;45.93;29.80;;;;;;;;;;5115076;28;20442;-74
2021/12/16 16:02:35;;;;;;;51.73;30.37;;;;;;;;;;5137043;27;21390;-75
2021/12/16 16:05:03;;;;;;;51.10;29.30;;;;;;;;;;5138738;27;21007;-75
2021/12/16 16:07:33;;;;;;;49.87;28.00;;;;;;;;;;5115598;27;20459;-75
2021/12/16 16:10:00;;;;;;;52.13;31.93;;;;;;;;;;5109215;28;20449;-74
2021/12/16 16:12:31;;;;;;;44.40;28.07;;;;;;;;;;5124097;27;20454;-75
2021/12/16 16:15:10;;;;;;;49.43;29.57;;;;;;;;;;5125923;27;20457;-74
2021/12/16 16:17:41;;;;;;;49.60;29.03;;;;;;;;;;5111067;28;20519;-75
2021/12/16 16:20:09;;;;;;;48.63;30.17;;;;;;;;;;5123112;28;20464;-76
2021/12/16 16:22:37;;;;;;;48.97;26.80;;;;;;;;;;5112479;28;20442;-75
2021/12/16 16:25:05;;;;;;;55.20;31.60;;;;;;;;;;5128428;27;20465;-74
2021/12/16 16:27:32;;;;;;;52.40;30.67;;;;;;;;;;5138054;27;20882;-75
2021/12/16 16:30:02;;;;;;;48.70;30.20;;;;;;;;;;5148969;27;20531;-74
2021/12/16 16:32:31;;;;;;;49.07;30.60;;;;;;;;;;5126091;27;20460;-74
2021/12/16 16:34:58;;;;;;;50.53;28.50;;;;;;;;;;5130414;27;20461;-72
2021/12/16 16:37:27;;;;;;;47.73;29.30;;;;;;;;;;5126177;27;20433;-74
2021/12/16 16:39:58;;;;;;;44.90;29.53;;;;;;;;;;5124560;28;20535;-74
2021/12/16 16:42:33;;;;;;;54.93;31.63;;;;;;;;;;5127243;27;20445;-74
2021/12/16 16:45:00;;;;;;;55.20;30.50;;;;;;;;;;5111847;28;20980;-76
2021/12/16 16:47:33;;;;;;;51.13;27.33;;;;;;;;;;5121166;27;20637;-76
2021/12/16 16:50:01;;;;;;;53.87;30.60;;;;;;;;;;5138701;27;20934;-76
2021/12/16 16:52:30;;;;;;;54.00;30.37;;;;;;;;;;5139779;27;20856;-76
2021/12/16 16:55:10;;;;;;;53.23;30.07;;;;;;;;;;5113641;28;20466;-75
2021/12/16 16:57:38;;;;;;;49.97;29.83;;;;;;;;;;5118299;27;20883;-74
2021/12/16 17:00:08;;;;;;;46.10;28.97;;;;;;;;;;5125816;27;20864;-75
2021/12/16 17:02:37;;;;;;;46.27;27.77;;;;;;;;;;5122331;27;20473;-73
2021/12/16 17:05:08;;;;;;;48.17;29.20;;;;;;;;;;5140470;27;20453;-75